Time;durP1;ratioP1;P1;durP2;ratioP2;P2;SDS_P1;SDS_P2;PMS_P1;PMS_P2;Temp;Humidity;BMP_temperature;BMP_pressure;BME280_temperature;BME280_humidity;BME280_pressure;Samples;Min_cycle;Max_cycle;Signal;HPM_P1;HPM_P2
2022/12/02 00:02:24;;;;;;;;;;;;;;;4.44;100.00;98258.19;5071376;28;19952;-60
2022/12/02 00:04:54;;;;;;;;;;;;;;;4.51;100.00;98261.59;5063137;28;19992;-61
2022/12/02 00:07:21;;;;;;;;;;;;;;;4.43;100.00;98254.72;5071609;28;19987;-61
2022/12/02 00:09:47;;;;;;;;;;;;;;;4.45;100.00;98262.44;5071362;28;20014;-61
2022/12/02 00:12:16;;;;;;;;;;;;;;;4.41;100.00;98259.41;5071345;28;20088;-61
2022/12/02 00:14:42;;;;;;;;;;;;;;;4.36;100.00;98253.97;5070950;28;19987;-61
2022/12/02 00:17:08;;;;;;;;;;;;;;;4.38;100.00;98253.75;5070917;28;19925;-61
2022/12/02 00:19:34;;;;;;;;;;;;;;;4.32;100.00;98255.44;5070966;28;20015;-60
2022/12/02 00:22:02;;;;;;;;;;;;;;;4.43;100.00;98256.53;5070680;28;19967;-61
2022/12/02 00:24:29;;;;;;;;;;;;;;;4.35;100.00;98252.34;5067784;28;19984;-62
2022/12/02 00:26:55;;;;;;;;;;;;;;;4.19;100.00;98251.03;5070946;28;20104;-61
2022/12/02 00:29:21;;;;;;;;;;;;;;;4.31;100.00;98254.59;5070871;28;19990;-63
2022/12/02 00:31:47;;;;;;;;;;;;;;;4.28;100.00;98260.31;5070873;28;19960;-60
2022/12/02 00:34:14;;;;;;;;;;;;;;;4.29;100.00;98253.22;5070931;28;19980;-61
2022/12/02 00:36:40;;;;;;;;;;;;;;;4.32;100.00;98261.53;5070715;28;19924;-60
2022/12/02 00:39:08;;;;;;;;;;;;;;;4.24;100.00;98259.13;5070681;28;20031;-60
2022/12/02 00:41:34;;;;;;;;;;;;;;;4.13;100.00;98257.19;5070519;28;19975;-60
2022/12/02 00:46:44;;;;;;;;;;;;;;;4.40;100.00;98255.16;5070737;28;19947;-60
2022/12/02 00:49:12;;;;;;;;;;;;;;;4.36;100.00;98243.41;5070801;28;19932;-60
2022/12/02 00:51:39;;;;;;;;;;;;;;;4.38;100.00;98249.28;5070449;28;19991;-61
2022/12/02 00:54:06;;;;;;;;;;;;;;;4.31;100.00;98249.31;5070547;28;20003;-60
2022/12/02 00:56:33;;;;;;;;;;;;;;;4.25;100.00;98244.06;5070294;28;19985;-61
2022/12/02 00:59:00;;;;;;;;;;;;;;;4.32;100.00;98243.03;5069989;28;19940;-60
2022/12/02 01:01:26;;;;;;;;;;;;;;;4.33;100.00;98246.47;5070157;28;19972;-60
2022/12/02 01:03:53;;;;;;;;;;;;;;;4.30;100.00;98247.69;5069894;28;19936;-59
2022/12/02 01:06:19;;;;;;;;;;;;;;;4.34;100.00;98246.25;5069864;28;19984;-60
2022/12/02 01:08:45;;;;;;;;;;;;;;;4.34;100.00;98237.50;5069839;28;19992;-60
2022/12/02 01:11:12;;;;;;;;;;;;;;;4.39;100.00;98237.69;5069900;28;19980;-61
2022/12/02 01:13:40;;;;;;;;;;;;;;;4.27;100.00;98232.25;5069296;28;19996;-61
2022/12/02 01:16:06;;;;;;;;;;;;;;;4.22;100.00;98241.88;5070188;28;19996;-61
2022/12/02 01:18:33;;;;;;;;;;;;;;;4.36;100.00;98232.81;5069893;28;19988;-60
2022/12/02 01:20:59;;;;;;;;;;;;;;;4.34;100.00;98227.75;5069965;28;19963;-60
2022/12/02 01:23:25;;;;;;;;;;;;;;;4.26;100.00;98230.66;5069695;28;19925;-60
2022/12/02 01:25:52;;;;;;;;;;;;;;;4.21;100.00;98230.47;5061617;28;20013;-60
2022/12/02 01:28:18;;;;;;;;;;;;;;;4.29;100.00;98230.22;5069801;28;20068;-59
2022/12/02 01:30:46;;;;;;;;;;;;;;;4.30;100.00;98231.03;5069366;28;20023;-59
2022/12/02 01:33:13;;;;;;;;;;;;;;;4.26;100.00;98224.56;5069482;28;19925;-60
2022/12/02 01:35:39;;;;;;;;;;;;;;;4.19;100.00;98226.44;5068967;28;20075;-60
2022/12/02 01:38:05;;;;;;;;;;;;;;;4.20;100.00;98223.59;5069312;28;19936;-61
2022/12/02 01:40:32;;;;;;;;;;;;;;;4.22;100.00;98218.06;5069139;28;19985;-60
2022/12/02 01:42:59;;;;;;;;;;;;;;;4.28;100.00;98230.44;5069416;28;19931;-59
2022/12/02 01:45:25;;;;;;;;;;;;;;;4.33;100.00;98225.31;5069256;28;19992;-60
2022/12/02 01:47:53;;;;;;;;;;;;;;;4.26;100.00;98230.66;5061114;28;19976;-60
2022/12/02 01:50:19;;;;;;;;;;;;;;;4.18;100.00;98232.72;5051598;28;19935;-61
2022/12/02 01:52:46;;;;;;;;;;;;;;;4.17;100.00;98213.44;5069150;28;19967;-61
2022/12/02 01:55:13;;;;;;;;;;;;;;;4.18;100.00;98220.34;5069236;28;20003;-60
2022/12/02 01:57:40;;;;;;;;;;;;;;;4.15;100.00;98227.88;5068866;28;19988;-60
2022/12/02 02:00:07;;;;;;;;;;;;;;;4.20;100.00;98220.13;5051073;28;19987;-60
2022/12/02 02:02:37;;;;;;;;;;;;;;;4.18;100.00;98217.69;5068692;28;19996;-61
2022/12/02 02:05:07;;;;;;;;;;;;;;;4.15;100.00;98212.81;5068936;28;20311;-60
2022/12/02 02:07:34;;;;;;;;;;;;;;;4.26;100.00;98213.97;5068935;28;19989;-60
2022/12/02 02:10:01;;;;;;;;;;;;;;;4.21;100.00;98219.91;5068820;28;20469;-60
2022/12/02 02:12:27;;;;;;;;;;;;;;;4.26;100.00;98214.81;5068869;28;19964;-60
2022/12/02 02:14:54;;;;;;;;;;;;;;;4.29;100.00;98209.06;5068885;28;20002;-60
2022/12/02 02:17:20;;;;;;;;;;;;;;;4.16;100.00;98206.53;5068868;28;19967;-60
2022/12/02 02:19:46;;;;;;;;;;;;;;;4.15;100.00;98212.81;5068786;28;20417;-60
2022/12/02 02:22:17;;;;;;;;;;;;;;;4.10;100.00;98209.22;5068571;28;19964;-61
2022/12/02 02:24:44;;;;;;;;;;;;;;;4.05;100.00;98196.66;5068559;28;19984;-60
2022/12/02 02:27:11;;;;;;;;;;;;;;;4.09;100.00;98200.47;5072887;28;20039;-60
2022/12/02 02:29:37;;;;;;;;;;;;;;;4.01;100.00;98203.38;5072753;28;19996;-61
2022/12/02 02:32:03;;;;;;;;;;;;;;;3.94;100.00;98189.41;5072994;28;19991;-60
2022/12/02 02:34:30;;;;;;;;;;;;;;;3.95;100.00;98195.50;5072892;28;19960;-60
2022/12/02 02:36:56;;;;;;;;;;;;;;;3.98;100.00;98201.16;5073216;28;20562;-60
2022/12/02 02:39:23;;;;;;;;;;;;;;;3.91;100.00;98189.00;5073130;28;20012;-60
2022/12/02 02:41:51;;;;;;;;;;;;;;;3.92;100.00;98183.53;5072741;28;19928;-61
2022/12/02 02:44:18;;;;;;;;;;;;;;;4.01;100.00;98190.19;5072763;28;19989;-60
2022/12/02 02:46:44;;;;;;;;;;;;;;;3.90;100.00;98179.50;5072337;28;19988;-60
2022/12/02 02:49:11;;;;;;;;;;;;;;;3.92;100.00;98175.59;5072681;28;19925;-60
2022/12/02 02:51:37;;;;;;;;;;;;;;;3.94;100.00;98172.72;5072329;28;19925;-61
2022/12/02 02:54:03;;;;;;;;;;;;;;;3.88;100.00;98178.88;5072157;28;19964;-60
2022/12/02 02:56:30;;;;;;;;;;;;;;;4.05;100.00;98175.53;5072263;28;19992;-60
2022/12/02 02:58:57;;;;;;;;;;;;;;;3.96;100.00;98176.78;5072345;28;19971;-61
2022/12/02 03:01:27;;;;;;;;;;;;;;;3.95;100.00;98179.66;5072530;28;19925;-59
2022/12/02 03:03:55;;;;;;;;;;;;;;;3.77;100.00;98169.81;5064470;28;19943;-60
2022/12/02 03:06:22;;;;;;;;;;;;;;;3.76;100.00;98176.13;5072192;28;19992;-59
2022/12/02 03:08:49;;;;;;;;;;;;;;;3.78;100.00;98185.44;5072094;28;19955;-60
2022/12/02 03:11:16;;;;;;;;;;;;;;;3.93;100.00;98182.50;5072261;28;19964;-60
2022/12/02 03:13:43;;;;;;;;;;;;;;;3.87;100.00;98175.41;5072003;28;19983;-60
2022/12/02 03:16:12;;;;;;;;;;;;;;;3.90;100.00;98174.22;5054314;28;19968;-61
2022/12/02 03:18:40;;;;;;;;;;;;;;;4.01;100.00;98166.41;5072154;28;19967;-61
2022/12/02 03:21:08;;;;;;;;;;;;;;;3.97;100.00;98170.47;5072242;28;19972;-60
2022/12/02 03:23:35;;;;;;;;;;;;;;;4.09;100.00;98163.47;5071614;28;19940;-60
2022/12/02 03:26:02;;;;;;;;;;;;;;;3.95;100.00;98166.44;5071981;28;20484;-60
2022/12/02 03:28:29;;;;;;;;;;;;;;;3.98;100.00;98168.66;5071889;28;20333;-60
2022/12/02 03:30:56;;;;;;;;;;;;;;;3.94;100.00;98168.25;5071821;28;19925;-60
2022/12/02 03:33:24;;;;;;;;;;;;;;;3.89;100.00;98168.09;5071719;28;19924;-61
2022/12/02 03:35:50;;;;;;;;;;;;;;;3.99;100.00;98165.78;5071588;28;19972;-61
2022/12/02 03:38:16;;;;;;;;;;;;;;;4.15;100.00;98156.50;5070990;28;19984;-61
2022/12/02 03:40:43;;;;;;;;;;;;;;;4.13;100.00;98162.03;5071578;28;19988;-60
2022/12/02 03:43:09;;;;;;;;;;;;;;;4.14;100.00;98157.56;5071602;28;19967;-60
2022/12/02 03:45:36;;;;;;;;;;;;;;;4.21;100.00;98166.22;5071319;28;19992;-61
2022/12/02 03:48:04;;;;;;;;;;;;;;;4.27;100.00;98158.25;5071466;28;20008;-59
2022/12/02 03:50:32;;;;;;;;;;;;;;;4.25;100.00;98156.84;5071527;28;19967;-61
2022/12/02 03:52:58;;;;;;;;;;;;;;;4.15;100.00;98162.63;5071431;28;19931;-60
2022/12/02 03:55:24;;;;;;;;;;;;;;;4.23;100.00;98159.72;5071537;28;19932;-60
2022/12/02 03:57:51;;;;;;;;;;;;;;;4.13;100.00;98151.47;5071354;28;19925;-60
2022/12/02 04:00:17;;;;;;;;;;;;;;;4.13;100.00;98154.09;5071561;28;19932;-60
2022/12/02 04:02:44;;;;;;;;;;;;;;;4.24;100.00;98147.31;5071194;28;19925;-61
2022/12/02 04:05:10;;;;;;;;;;;;;;;4.20;100.00;98154.03;5071383;28;19959;-60
2022/12/02 04:07:38;;;;;;;;;;;;;;;4.21;100.00;98153.00;5071129;28;19935;-60
2022/12/02 04:10:05;;;;;;;;;;;;;;;4.25;100.00;98148.91;5071141;28;19992;-60
2022/12/02 04:12:31;;;;;;;;;;;;;;;4.27;100.00;98160.09;5070972;28;19980;-60
2022/12/02 04:14:58;;;;;;;;;;;;;;;4.35;100.00;98154.53;5070943;28;19972;-60
2022/12/02 04:17:24;;;;;;;;;;;;;;;4.44;100.00;98142.63;5071190;28;19931;-61
2022/12/02 04:19:50;;;;;;;;;;;;;;;4.35;100.00;98150.06;5071149;28;19935;-60
2022/12/02 04:22:17;;;;;;;;;;;;;;;4.26;100.00;98146.06;5070859;28;19928;-60
2022/12/02 04:24:44;;;;;;;;;;;;;;;4.22;100.00;98150.16;5070956;28;19924;-61
2022/12/02 04:27:11;;;;;;;;;;;;;;;4.32;100.00;98147.84;5071026;28;19925;-60
2022/12/02 04:29:37;;;;;;;;;;;;;;;4.34;100.00;98148.41;5071028;28;19936;-62
2022/12/02 04:32:03;;;;;;;;;;;;;;;4.29;100.00;98142.97;5071430;28;19992;-62
2022/12/02 04:34:30;;;;;;;;;;;;;;;4.28;100.00;98140.53;5071083;28;20263;-60
2022/12/02 04:36:56;;;;;;;;;;;;;;;4.41;100.00;98143.06;5070932;28;19924;-61
2022/12/02 04:39:22;;;;;;;;;;;;;;;4.40;100.00;98146.72;5070745;28;19924;-61
2022/12/02 04:41:50;;;;;;;;;;;;;;;4.45;100.00;98146.09;5070537;28;19924;-61
2022/12/02 04:44:16;;;;;;;;;;;;;;;4.38;100.00;98138.22;5070885;28;19924;-61
2022/12/02 04:46:43;;;;;;;;;;;;;;;4.25;100.00;98143.63;5070496;28;20004;-61
2022/12/02 04:49:09;;;;;;;;;;;;;;;4.28;100.00;98144.00;5069826;28;19963;-61
2022/12/02 04:51:35;;;;;;;;;;;;;;;4.32;100.00;98144.38;5070652;28;19971;-61
2022/12/02 04:54:02;;;;;;;;;;;;;;;4.40;100.00;98145.91;5070794;28;19992;-61
2022/12/02 04:56:28;;;;;;;;;;;;;;;4.22;100.00;98139.59;5070714;28;19977;-59
2022/12/02 04:58:56;;;;;;;;;;;;;;;4.23;100.00;98135.09;5070565;28;20051;-59
2022/12/02 05:01:22;;;;;;;;;;;;;;;4.25;100.00;98139.16;5070356;28;19976;-61
2022/12/02 05:03:48;;;;;;;;;;;;;;;4.27;100.00;98131.78;5070048;28;19991;-60
2022/12/02 05:06:14;;;;;;;;;;;;;;;4.19;100.00;98128.63;5071466;28;20000;-60
2022/12/02 05:08:41;;;;;;;;;;;;;;;4.15;100.00;98135.38;5070930;28;20095;-60
2022/12/02 05:11:07;;;;;;;;;;;;;;;4.06;100.00;98129.56;5071522;28;19988;-60
2022/12/02 05:13:33;;;;;;;;;;;;;;;4.16;100.00;98123.78;5071140;28;19960;-59
2022/12/02 05:16:01;;;;;;;;;;;;;;;4.09;100.00;98123.81;5071074;28;19956;-60
2022/12/02 05:18:27;;;;;;;;;;;;;;;4.04;100.00;98128.97;5071085;28;19925;-61
2022/12/02 05:20:54;;;;;;;;;;;;;;;3.92;100.00;98122.75;5070903;28;19993;-60
2022/12/02 05:23:20;;;;;;;;;;;;;;;3.76;100.00;98131.22;5071011;28;19984;-61
2022/12/02 05:25:46;;;;;;;;;;;;;;;3.71;100.00;98125.78;5071042;28;19960;-60
2022/12/02 05:28:13;;;;;;;;;;;;;;;3.82;100.00;98127.72;5072462;28;19993;-60
2022/12/02 05:30:39;;;;;;;;;;;;;;;3.78;100.00;98126.50;5074306;28;19971;-61
2022/12/02 05:33:07;;;;;;;;;;;;;;;3.83;100.00;98128.53;5074416;28;19960;-60
2022/12/02 05:35:33;;;;;;;;;;;;;;;3.98;100.00;98127.19;5074586;28;19924;-60
2022/12/02 05:38:00;;;;;;;;;;;;;;;4.02;100.00;98123.09;5074720;28;19935;-60
2022/12/02 05:40:26;;;;;;;;;;;;;;;4.06;100.00;98129.56;5071341;28;19928;-60
2022/12/02 05:42:52;;;;;;;;;;;;;;;4.00;100.00;98127.78;5062554;28;19944;-60
2022/12/02 05:45:20;;;;;;;;;;;;;;;4.06;100.00;98120.81;5070969;28;19924;-60
2022/12/02 05:47:48;;;;;;;;;;;;;;;4.01;100.00;98131.22;5071026;28;19975;-60
2022/12/02 05:50:16;;;;;;;;;;;;;;;3.94;100.00;98128.63;5071095;28;19988;-61
2022/12/02 05:52:43;;;;;;;;;;;;;;;3.96;100.00;98118.66;5071179;28;20009;-61
2022/12/02 05:55:13;;;;;;;;;;;;;;;4.12;100.00;98126.03;5069702;28;19925;-60
2022/12/02 05:57:39;;;;;;;;;;;;;;;4.14;100.00;98126.66;5068979;28;20028;-60
2022/12/02 06:00:12;;;;;;;;;;;;;;;4.05;100.00;98132.41;5068859;28;19970;-60
2022/12/02 06:02:40;;;;;;;;;;;;;;;4.17;100.00;98128.88;5069096;28;19947;-60
2022/12/02 06:05:12;;;;;;;;;;;;;;;4.11;100.00;98127.09;5069178;28;20020;-60
2022/12/02 06:07:40;;;;;;;;;;;;;;;4.02;100.00;98132.84;5068915;28;20004;-60
2022/12/02 06:10:10;;;;;;;;;;;;;;;4.02;100.00;98136.31;5068932;28;20036;-60
2022/12/02 06:12:36;;;;;;;;;;;;;;;4.04;100.00;98131.59;5068829;28;20663;-61
2022/12/02 06:15:13;;;;;;;;;;;;;;;4.07;100.00;98133.81;5069118;28;20170;-60
2022/12/02 06:17:39;;;;;;;;;;;;;;;4.25;100.00;98135.69;5068844;28;19984;-60
2022/12/02 06:20:06;;;;;;;;;;;;;;;4.28;100.00;98132.63;5069070;28;19963;-60
2022/12/02 06:22:33;;;;;;;;;;;;;;;4.35;100.00;98123.59;5068571;28;20078;-60
2022/12/02 06:25:02;;;;;;;;;;;;;;;4.43;100.00;98130.44;5069251;28;19935;-61
2022/12/02 06:27:29;;;;;;;;;;;;;;;4.42;100.00;98128.84;5069246;28;19925;-60
2022/12/02 06:29:58;;;;;;;;;;;;;;;4.23;100.00;98133.28;5069052;28;20075;-61
2022/12/02 06:32:29;;;;;;;;;;;;;;;4.20;100.00;98135.53;5068690;28;19988;-59
2022/12/02 06:34:55;;;;;;;;;;;;;;;4.36;100.00;98125.22;5060832;28;19948;-60
2022/12/02 06:37:22;;;;;;;;;;;;;;;4.30;100.00;98127.94;5068422;28;19975;-61
2022/12/02 06:39:50;;;;;;;;;;;;;;;4.28;100.00;98130.78;5068364;28;20007;-60
2022/12/02 06:42:21;;;;;;;;;;;;;;;4.21;100.00;98137.13;5068514;28;19980;-60
2022/12/02 06:45:07;;;;;;;;;;;;;;;4.14;100.00;98134.59;5068280;28;20016;-60
2022/12/02 06:47:46;;;;;;;;;;;;;;;4.20;100.00;98133.72;5068452;28;19967;-61
2022/12/02 06:50:23;;;;;;;;;;;;;;;4.23;100.00;98138.56;5068532;28;20027;-61
2022/12/02 06:52:49;;;;;;;;;;;;;;;4.33;100.00;98138.88;5068403;28;19925;-60
2022/12/02 06:55:25;;;;;;;;;;;;;;;4.40;100.00;98135.34;5068550;28;19925;-61
2022/12/02 06:57:53;;;;;;;;;;;;;;;4.47;100.00;98136.09;5059912;28;19928;-60
2022/12/02 07:00:20;;;;;;;;;;;;;;;4.39;100.00;98137.22;5068521;28;20015;-61
2022/12/02 07:02:46;;;;;;;;;;;;;;;4.39;100.00;98139.84;5068223;28;19976;-61
2022/12/02 07:05:18;;;;;;;;;;;;;;;4.35;100.00;98136.81;5068472;28;19931;-60
2022/12/02 07:07:44;;;;;;;;;;;;;;;4.33;100.00;98133.56;5068185;28;19984;-60
2022/12/02 07:10:18;;;;;;;;;;;;;;;4.27;100.00;98139.72;5068244;28;19997;-61
2022/12/02 07:12:46;;;;;;;;;;;;;;;4.25;100.00;98141.78;5051893;28;19988;-60
2022/12/02 07:15:22;;;;;;;;;;;;;;;4.39;100.00;98141.69;5054273;28;19992;-60
2022/12/02 07:17:49;;;;;;;;;;;;;;;4.25;100.00;98140.97;5072001;28;19952;-61
2022/12/02 07:20:22;;;;;;;;;;;;;;;4.16;100.00;98145.72;5072138;28;20008;-59
2022/12/02 07:22:49;;;;;;;;;;;;;;;4.27;100.00;98147.66;5071674;28;19935;-60
2022/12/02 07:25:25;;;;;;;;;;;;;;;4.39;100.00;98150.44;5071749;28;19999;-60
2022/12/02 07:27:51;;;;;;;;;;;;;;;4.33;100.00;98154.72;5071640;28;19933;-60
2022/12/02 07:30:23;;;;;;;;;;;;;;;4.39;100.00;98154.91;5072133;28;19996;-59
2022/12/02 07:32:49;;;;;;;;;;;;;;;4.35;100.00;98152.69;5072089;28;20019;-60
2022/12/02 07:35:16;;;;;;;;;;;;;;;4.24;100.00;98152.59;5072371;28;19936;-60
2022/12/02 07:37:42;;;;;;;;;;;;;;;4.26;100.00;98150.53;5071751;28;19936;-60
2022/12/02 07:40:09;;;;;;;;;;;;;;;4.32;100.00;98155.78;5071991;28;19925;-60
2022/12/02 07:42:35;;;;;;;;;;;;;;;4.38;100.00;98153.28;5071994;28;19925;-60
2022/12/02 07:45:02;;;;;;;;;;;;;;;4.34;100.00;98159.00;5071557;28;19933;-60
2022/12/02 07:47:30;;;;;;;;;;;;;;;4.22;100.00;98149.34;5071438;28;19963;-60
2022/12/02 07:49:57;;;;;;;;;;;;;;;4.32;100.00;98150.47;5053575;28;19929;-61
2022/12/02 07:52:24;;;;;;;;;;;;;;;4.15;100.00;98146.75;5071393;28;19992;-60
2022/12/02 07:54:50;;;;;;;;;;;;;;;4.27;100.00;98147.66;5071480;28;19924;-60
2022/12/02 07:57:16;;;;;;;;;;;;;;;4.32;100.00;98153.13;5071625;28;19931;-60
2022/12/02 07:59:43;;;;;;;;;;;;;;;4.26;100.00;98147.88;5071791;28;20035;-61
2022/12/02 08:02:09;;;;;;;;;;;;;;;4.21;100.00;98147.72;5071840;28;19980;-60
2022/12/02 08:04:37;;;;;;;;;;;;;;;4.29;100.00;98153.56;5071543;28;19948;-61
2022/12/02 08:07:03;;;;;;;;;;;;;;;4.44;100.00;98144.47;5071619;28;20427;-60
2022/12/02 08:09:30;;;;;;;;;;;;;;;4.43;100.00;98143.66;5071441;28;19929;-60
2022/12/02 08:11:56;;;;;;;;;;;;;;;4.21;100.00;98147.72;5071319;28;19964;-60
2022/12/02 08:14:22;;;;;;;;;;;;;;;4.31;100.00;98159.44;5071087;28;19982;-61
2022/12/02 08:16:49;;;;;;;;;;;;;;;4.45;100.00;98148.75;5071004;28;19980;-60
2022/12/02 08:19:15;;;;;;;;;;;;;;;4.34;100.00;98159.00;5070844;28;19938;-60
2022/12/02 08:21:43;;;;;;;;;;;;;;;4.31;100.00;98158.63;5070760;28;20655;-60
2022/12/02 08:24:10;;;;;;;;;;;;;;;4.35;100.00;98152.69;5070490;28;19970;-60
2022/12/02 08:26:36;;;;;;;;;;;;;;;4.41;100.00;98158.13;5071015;28;19947;-60
2022/12/02 08:29:02;;;;;;;;;;;;;;;4.34;100.00;98159.00;5070716;28;19928;-60
2022/12/02 08:31:29;;;;;;;;;;;;;;;4.28;100.00;98159.88;5070769;28;19925;-60
2022/12/02 08:33:55;;;;;;;;;;;;;;;4.30;100.00;98152.50;5070932;28;19963;-61
2022/12/02 08:36:22;;;;;;;;;;;;;;;4.32;100.00;98149.66;5070527;28;19963;-61
2022/12/02 08:38:52;;;;;;;;;;;;;;;4.33;100.00;98153.94;5070123;28;19991;-60
2022/12/02 08:41:18;;;;;;;;;;;;;;;4.19;100.00;98153.22;5070748;28;19947;-60
2022/12/02 08:43:45;;;;;;;;;;;;;;;4.32;100.00;98155.78;5070562;28;19968;-60
2022/12/02 08:46:11;;;;;;;;;;;;;;;4.32;100.00;98153.13;5070807;28;19925;-61
2022/12/02 08:48:37;;;;;;;;;;;;;;;4.18;100.00;98153.44;5070804;28;20432;-61
2022/12/02 08:51:04;;;;;;;;;;;;;;;4.32;100.00;98149.66;5070775;28;20023;-61
2022/12/02 08:53:31;;;;;;;;;;;;;;;4.33;100.00;98146.00;5070842;28;20001;-61
2022/12/02 08:55:58;;;;;;;;;;;;;;;4.33;100.00;98149.44;5070711;28;19963;-60
2022/12/02 08:58:24;;;;;;;;;;;;;;;4.26;100.00;98146.06;5070852;28;19924;-60
2022/12/02 09:00:51;;;;;;;;;;;;;;;4.20;100.00;98144.28;5070694;28;19963;-60
2022/12/02 09:03:17;;;;;;;;;;;;;;;4.19;100.00;98145.31;5070501;28;19992;-61
2022/12/02 09:05:44;;;;;;;;;;;;;;;4.22;100.00;98142.22;5070196;28;20010;-60
2022/12/02 09:08:10;;;;;;;;;;;;;;;4.18;100.00;98137.56;5070146;28;19996;-60
2022/12/02 09:10:36;;;;;;;;;;;;;;;4.21;100.00;98137.13;5069826;28;19935;-60
2022/12/02 09:13:04;;;;;;;;;;;;;;;4.21;100.00;98139.78;5069790;28;19993;-60
2022/12/02 09:15:30;;;;;;;;;;;;;;;4.25;100.00;98141.78;5069785;28;19925;-60
2022/12/02 09:17:57;;;;;;;;;;;;;;;4.24;100.00;98142.03;5069632;28;19924;-60
2022/12/02 09:20:23;;;;;;;;;;;;;;;4.14;100.00;98141.69;5069721;28;20023;-60
2022/12/02 09:22:49;;;;;;;;;;;;;;;4.28;100.00;98144.00;5069333;28;19936;-60
2022/12/02 09:25:16;;;;;;;;;;;;;;;4.23;100.00;98146.50;5069708;28;19943;-60
2022/12/02 09:27:42;;;;;;;;;;;;;;;4.30;100.00;98147.22;5069661;28;19976;-60
2022/12/02 09:30:10;;;;;;;;;;;;;;;4.36;100.00;98145.56;5069693;28;19952;-60
2022/12/02 09:32:37;;;;;;;;;;;;;;;4.29;100.00;98142.16;5069656;28;19925;-60
2022/12/02 09:35:03;;;;;;;;;;;;;;;4.20;100.00;98144.28;5068669;28;19979;-59
2022/12/02 09:37:30;;;;;;;;;;;;;;;4.14;100.00;98136.41;5069579;28;19985;-60
2022/12/02 09:39:56;;;;;;;;;;;;;;;4.28;100.00;98135.25;5069508;28;19939;-60
2022/12/02 09:42:22;;;;;;;;;;;;;;;4.34;100.00;98143.13;5069345;28;19988;-60
2022/12/02 09:44:49;;;;;;;;;;;;;;;4.22;100.00;98144.88;5069221;28;20032;-59
2022/12/02 09:47:18;;;;;;;;;;;;;;;4.05;100.00;98133.25;5069455;28;19951;-60
2022/12/02 09:49:45;;;;;;;;;;;;;;;3.97;100.00;98135.31;5068842;28;19943;-60
2022/12/02 09:52:14;;;;;;;;;;;;;;;3.96;100.00;98136.34;5069226;28;20009;-60
2022/12/02 09:54:41;;;;;;;;;;;;;;;3.99;100.00;98138.56;5068954;28;19931;-59
2022/12/02 09:57:09;;;;;;;;;;;;;;;3.89;100.00;98140.88;5069113;28;19925;-60
2022/12/02 09:59:35;;;;;;;;;;;;;;;3.86;100.00;98141.31;5069059;28;19925;-61
2022/12/02 10:02:02;;;;;;;;;;;;;;;3.90;100.00;98140.66;5069308;28;20440;-61
2022/12/02 10:04:29;;;;;;;;;;;;;;;3.94;100.00;98131.28;5069246;28;19932;-61
2022/12/02 10:06:56;;;;;;;;;;;;;;;3.97;100.00;98122.91;5069229;28;19921;-61
2022/12/02 10:09:26;;;;;;;;;;;;;;;4.07;100.00;98130.38;5069173;28;19975;-61
2022/12/02 10:11:52;;;;;;;;;;;;;;;4.02;100.00;98128.38;5060890;28;19995;-61
2022/12/02 10:14:19;;;;;;;;;;;;;;;3.84;100.00;98119.59;5069111;28;19951;-60
2022/12/02 10:16:45;;;;;;;;;;;;;;;3.90;100.00;98122.16;5069232;28;19963;-60
2022/12/02 10:19:15;;;;;;;;;;;;;;;3.96;100.00;98129.22;5069317;28;19980;-60
2022/12/02 10:21:42;;;;;;;;;;;;;;;3.89;100.00;98117.91;5068900;28;19924;-59
2022/12/02 10:24:10;;;;;;;;;;;;;;;4.06;100.00;98129.56;5068325;28;19920;-60
2022/12/02 10:26:43;;;;;;;;;;;;;;;4.19;100.00;98123.34;5068528;28;19928;-61
2022/12/02 10:29:14;;;;;;;;;;;;;;;4.09;100.00;98121.19;5068588;28;19925;-60
2022/12/02 10:31:52;;;;;;;;;;;;;;;4.12;100.00;98112.81;5068693;28;20005;-60
2022/12/02 10:34:20;;;;;;;;;;;;;;;4.08;100.00;98121.41;5068630;28;19935;-60
2022/12/02 10:36:48;;;;;;;;;;;;;;;4.08;100.00;98116.94;5068903;28;19952;-61
2022/12/02 10:39:17;;;;;;;;;;;;;;;4.00;100.00;98111.91;5068724;28;20007;-61
2022/12/02 10:41:43;;;;;;;;;;;;;;;4.08;100.00;98100.28;5068999;28;19925;-61
2022/12/02 10:44:13;;;;;;;;;;;;;;;4.00;100.00;98114.56;5068767;28;19967;-60
2022/12/02 10:46:40;;;;;;;;;;;;;;;4.11;100.00;98105.13;5068448;28;20024;-61
2022/12/02 10:49:30;;;;;;;;;;;;;;;4.05;100.00;98098.88;5072382;28;20162;-61
2022/12/02 10:52:01;;;;;;;;;;;;;;;4.05;100.00;98101.53;5054291;28;19959;-60
2022/12/02 10:54:28;;;;;;;;;;;;;;;4.11;100.00;98111.22;5068925;28;19931;-60
2022/12/02 10:56:56;;;;;;;;;;;;;;;4.10;100.00;98092.94;5072699;28;19972;-60
2022/12/02 10:59:22;;;;;;;;;;;;;;;4.13;100.00;98095.13;5072431;28;20258;-61
2022/12/02 11:01:49;;;;;;;;;;;;;;;4.11;100.00;98099.84;5072368;28;20003;-60
2022/12/02 11:04:16;;;;;;;;;;;;;;;4.06;100.00;98103.13;5072477;28;19967;-60
2022/12/02 11:06:42;;;;;;;;;;;;;;;4.20;100.00;98096.72;5072661;28;19963;-60
2022/12/02 11:09:15;;;;;;;;;;;;;;;4.29;100.00;98092.75;5072632;28;19940;-60
2022/12/02 11:11:41;;;;;;;;;;;;;;;4.38;100.00;98095.91;5072611;28;19988;-60
2022/12/02 11:14:11;;;;;;;;;;;;;;;4.30;100.00;98086.41;5054389;28;19924;-61
2022/12/02 11:16:55;;;;;;;;;;;;;;;4.30;100.00;98081.13;5072534;28;19924;-61
2022/12/02 11:19:39;;;;;;;;;;;;;;;4.40;100.00;98088.56;5072515;28;19955;-61
2022/12/02 11:22:25;;;;;;;;;;;;;;;4.29;100.00;98087.47;5065986;28;19929;-61
2022/12/02 11:24:53;;;;;;;;;;;;;;;4.34;100.00;98084.97;5072359;28;19944;-60
2022/12/02 11:27:20;;;;;;;;;;;;;;;4.33;100.00;98085.97;5072742;28;19924;-62
2022/12/02 11:30:01;;;;;;;;;;;;;;;4.41;100.00;98084.09;5072202;28;19924;-61
2022/12/02 11:32:42;;;;;;;;;;;;;;;4.23;100.00;98082.25;5072773;28;19956;-60
2022/12/02 11:35:13;;;;;;;;;;;;;;;4.19;100.00;98078.41;5071594;28;20364;-59
2022/12/02 11:37:41;;;;;;;;;;;;;;;4.13;100.00;98082.72;5072283;28;19991;-60
2022/12/02 11:40:27;;;;;;;;;;;;;;;4.18;100.00;98074.94;5072360;28;19947;-61
2022/12/02 11:43:14;;;;;;;;;;;;;;;4.29;100.00;98071.59;5064356;28;19971;-60
2022/12/02 11:45:56;;;;;;;;;;;;;;;4.22;100.00;98081.44;5071805;28;19924;-61
2022/12/02 11:48:22;;;;;;;;;;;;;;;4.08;100.00;98069.38;5071912;28;19932;-61
2022/12/02 11:50:49;;;;;;;;;;;;;;;4.17;100.00;98068.06;5071639;28;19967;-61
2022/12/02 11:53:16;;;;;;;;;;;;;;;4.27;100.00;98067.56;5071912;28;19924;-61
2022/12/02 11:55:44;;;;;;;;;;;;;;;4.25;100.00;98064.31;5071651;28;19924;-61
2022/12/02 11:58:16;;;;;;;;;;;;;;;4.13;100.00;98063.44;5071694;28;19924;-61
2022/12/02 12:00:59;;;;;;;;;;;;;;;4.16;100.00;98068.28;5072075;28;19939;-60
2022/12/02 12:03:25;;;;;;;;;;;;;;;4.27;100.00;98057.78;5072241;28;19984;-60
2022/12/02 12:06:06;;;;;;;;;;;;;;;4.38;100.00;98063.38;5072142;28;20020;-60
2022/12/02 12:08:32;;;;;;;;;;;;;;;4.44;100.00;98065.13;5071514;28;19925;-61
2022/12/02 12:11:14;;;;;;;;;;;;;;;4.34;100.00;98053.25;5071461;28;20483;-61
2022/12/02 12:13:55;;;;;;;;;;;;;;;4.29;100.00;98063.69;5068980;28;19925;-60
2022/12/02 12:16:23;;;;;;;;;;;;;;;4.23;100.00;98048.69;5071616;28;19935;-61
2022/12/02 12:18:50;;;;;;;;;;;;;;;4.30;100.00;98056.56;5070951;28;19952;-60
2022/12/02 12:21:31;;;;;;;;;;;;;;;4.27;100.00;98052.50;5071271;28;19996;-61
2022/12/02 12:24:24;;;;;;;;;;;;;;;4.22;100.00;98060.28;5067021;28;19980;-61
2022/12/02 12:26:51;;;;;;;;;;;;;;;4.26;100.00;98050.91;5070692;28;19925;-61
2022/12/02 12:29:18;;;;;;;;;;;;;;;4.23;100.00;98051.34;5071144;28;19924;-59
2022/12/02 12:31:46;;;;;;;;;;;;;;;4.20;100.00;98051.78;5071486;28;19984;-61
2022/12/02 12:34:15;;;;;;;;;;;;;;;4.16;100.00;98049.78;5071192;28;19928;-60
2022/12/02 12:36:42;;;;;;;;;;;;;;;4.18;100.00;98045.88;5071416;28;19971;-60
2022/12/02 12:39:09;;;;;;;;;;;;;;;4.27;100.00;98052.50;5071886;28;19976;-60
2022/12/02 12:41:35;;;;;;;;;;;;;;;4.18;100.00;98045.06;5071110;28;19928;-61
2022/12/02 12:44:09;;;;;;;;;;;;;;;4.22;100.00;98039.13;5070586;28;20002;-62
2022/12/02 12:46:43;;;;;;;;;;;;;;;4.34;100.00;98040.03;5070568;28;19972;-59
2022/12/02 12:49:10;;;;;;;;;;;;;;;4.27;100.00;98033.97;5070772;28;20071;-62
2022/12/02 12:51:37;;;;;;;;;;;;;;;4.17;100.00;98039.00;5070687;28;19984;-61
2022/12/02 12:54:03;;;;;;;;;;;;;;;4.20;100.00;98038.56;5070546;28;19931;-60
2022/12/02 12:56:29;;;;;;;;;;;;;;;4.07;100.00;98041.31;5070827;28;19924;-62